Time;durP1;ratioP1;P1;durP2;ratioP2;P2;SDS_P1;SDS_P2;PMS_P1;PMS_P2;Temp;Humidity;BMP_temperature;BMP_pressure;BME280_temperature;BME280_humidity;BME280_pressure;Samples;Min_cycle;Max_cycle;Signal;HPM_P1;HPM_P2
2023/07/30 00:03:10;;;;;;;;;;;22.10;57.80;;;21.15;57.42;100439.09;12250444;19;20329;-92
2023/07/30 00:07:12;;;;;;;;;;;22.10;57.90;;;21.21;57.15;100452.56;12247134;19;19903;-92
2023/07/30 00:11:14;;;;;;;;;;;22.10;57.90;;;21.10;57.57;100433.44;12246962;19;19943;-92
2023/07/30 00:15:16;;;;;;;;;;;22.10;57.90;;;21.20;57.55;100456.22;12247088;19;19918;-91
2023/07/30 00:19:17;;;;;;;;;;;22.10;58.00;;;21.12;57.26;100439.41;12249158;19;19930;-92
2023/07/30 00:23:19;;;;;;;;;;;22.10;58.00;;;21.22;57.73;100456.03;12248710;19;19911;-91
2023/07/30 00:27:20;;;;;;;;;;;22.00;58.00;;;21.24;57.65;100470.00;12244565;19;19911;-91
2023/07/30 00:31:22;;;;;;;;;;;22.00;58.00;;;21.04;57.19;100429.59;12247349;19;20272;-91
2023/07/30 00:35:25;;;;;;;;;;;22.00;58.00;;;21.12;57.55;100442.06;12248180;19;19936;-91
2023/07/30 00:39:26;;;;;;;;;;;22.00;58.00;;;21.20;57.28;100450.91;12248564;19;19915;-92
2023/07/30 00:43:28;;;;;;;;;;;22.00;57.90;;;21.16;57.41;100454.03;12247416;19;20337;-91
2023/07/30 00:47:30;;;;;;;;;;;22.00;57.80;;;21.13;57.50;100439.25;12245309;19;19914;-91
2023/07/30 00:51:33;;;;;;;;;;;22.00;57.70;;;21.08;57.59;100433.56;12244206;19;20262;-91
2023/07/30 00:55:35;;;;;;;;;;;21.90;57.60;;;20.95;57.43;100404.84;12246251;19;19914;-90
2023/07/30 00:59:36;;;;;;;;;;;21.80;57.60;;;20.91;57.46;100413.28;12245653;19;19936;-91
2023/07/30 01:03:38;;;;;;;;;;;21.80;57.50;;;20.91;57.63;100435.34;12255565;19;19958;-91
2023/07/30 01:07:40;;;;;;;;;;;21.70;57.60;;;20.82;57.62;100435.44;12255999;19;19929;-92
2023/07/30 01:11:43;;;;;;;;;;;21.70;57.70;;;20.88;57.64;100446.28;12251546;19;19922;-91
2023/07/30 01:15:45;;;;;;;;;;;21.70;57.70;;;20.83;57.39;100439.78;12258450;19;19953;-91
2023/07/30 01:19:46;;;;;;;;;;;21.60;57.70;;;20.81;57.50;100455.03;12256738;19;19918;-91
2023/07/30 01:23:48;;;;;;;;;;;21.60;57.70;;;20.66;57.51;100430.91;12258013;19;19982;-91
2023/07/30 01:27:54;;;;;;;;;;;21.60;57.70;;;20.68;57.40;100448.31;12251981;19;19942;-91
2023/07/30 01:31:58;;;;;;;;;;;21.60;57.70;;;20.66;57.31;100457.44;12253422;19;20222;-91
2023/07/30 01:36:01;;;;;;;;;;;21.60;57.70;;;20.40;57.55;100431.72;12256159;19;19945;-91
2023/07/30 01:40:03;;;;;;;;;;;21.50;57.70;;;20.56;57.50;100460.19;12256265;19;19936;-91
2023/07/30 01:44:04;;;;;;;;;;;21.50;57.70;;;20.64;57.74;100481.47;12258071;19;19932;-91
2023/07/30 01:48:06;;;;;;;;;;;21.50;57.80;;;20.54;57.77;100475.44;12252804;19;19919;-91
2023/07/30 01:52:08;;;;;;;;;;;21.40;57.80;;;20.45;57.87;100465.72;12254082;19;19920;-91
2023/07/30 01:56:09;;;;;;;;;;;21.40;57.80;;;20.64;57.75;100491.25;12254562;19;19931;-91
2023/07/30 02:00:12;;;;;;;;;;;21.40;57.80;;;20.21;57.66;100432.72;12256957;19;19915;-90
2023/07/30 02:04:13;;;;;;;;;;;21.40;57.80;;;20.48;57.59;100476.84;12257860;19;19922;-91
2023/07/30 02:08:15;;;;;;;;;;;21.40;57.80;;;20.49;57.75;100467.06;12250648;19;20334;-91
2023/07/30 02:12:17;;;;;;;;;;;21.40;57.80;;;20.57;57.79;100493.69;12251940;19;19919;-90
2023/07/30 02:16:19;;;;;;;;;;;21.30;57.70;;;20.45;57.44;100477.16;12251020;19;19915;-91
2023/07/30 02:20:21;;;;;;;;;;;21.30;57.60;;;20.48;57.74;100491.94;12256043;19;20600;-91
2023/07/30 02:24:22;;;;;;;;;;;21.30;57.60;;;20.42;57.80;100495.22;12255412;19;19915;-90
2023/07/30 02:28:24;;;;;;;;;;;21.20;57.60;;;20.34;57.50;100482.72;12252820;19;19923;-90
2023/07/30 02:32:25;;;;;;;;;;;21.20;57.70;;;20.35;57.79;100497.63;12251082;19;19922;-90
2023/07/30 02:36:27;;;;;;;;;;;21.20;57.70;;;20.41;57.79;100496.19;12254090;19;19917;-90
2023/07/30 02:40:28;;;;;;;;;;;21.20;57.70;;;20.10;57.89;100460.31;12254102;19;19990;-91
2023/07/30 02:44:29;;;;;;;;;;;21.20;57.70;;;20.25;57.49;100489.78;12254867;19;19918;-90
2023/07/30 02:48:31;;;;;;;;;;;21.20;57.70;;;20.26;57.70;100499.41;12254715;19;19930;-90
2023/07/30 02:52:32;;;;;;;;;;;21.10;57.70;;;20.10;57.87;100468.28;12251832;19;19911;-89
2023/07/30 02:56:34;;;;;;;;;;;21.10;57.70;;;20.13;57.83;100483.03;12252492;19;19918;-90
2023/07/30 03:00:36;;;;;;;;;;;21.10;57.70;;;20.20;57.90;100500.03;12253668;19;19911;-90
2023/07/30 03:04:37;;;;;;;;;;;21.10;57.80;;;20.24;57.62;100511.16;12253740;19;19964;-90
2023/07/30 03:08:39;;;;;;;;;;;21.00;57.70;;;20.17;57.70;100502.97;12253472;19;19914;-90
2023/07/30 03:12:40;;;;;;;;;;;21.00;57.70;;;20.14;57.59;100499.78;12249460;19;20345;-90
2023/07/30 03:16:42;;;;;;;;;;;21.00;57.70;;;20.09;58.02;100503.75;12251004;19;20324;-90
2023/07/30 03:20:43;;;;;;;;;;;21.00;57.70;;;19.87;57.70;100475.88;12251217;19;20337;-90
2023/07/30 03:24:48;;;;;;;;;;;20.90;57.70;;;20.00;58.03;100495.84;12251591;19;19956;-90
2023/07/30 03:28:51;;;;;;;;;;;20.90;57.70;;;19.68;58.10;100449.50;12247604;19;19929;-91
2023/07/30 03:32:54;;;;;;;;;;;21.00;57.80;;;19.92;57.99;100486.00;12247761;19;19971;-90
2023/07/30 03:36:56;;;;;;;;;;;20.90;57.80;;;19.76;57.93;100465.47;12246059;19;19986;-90
2023/07/30 03:40:57;;;;;;;;;;;20.90;57.80;;;19.84;58.10;100486.75;12250251;19;20336;-90
2023/07/30 03:44:59;;;;;;;;;;;20.80;57.80;;;19.68;57.67;100460.09;12250280;19;19930;-90
2023/07/30 03:49:02;;;;;;;;;;;20.80;57.80;;;19.84;57.71;100500.00;12249277;19;19911;-90
2023/07/30 03:53:03;;;;;;;;;;;20.80;57.80;;;19.87;58.06;100510.31;12247377;19;19925;-90
2023/07/30 03:57:05;;;;;;;;;;;20.80;57.80;;;19.81;57.84;100510.06;12246083;19;19951;-90
2023/07/30 04:01:08;;;;;;;;;;;20.80;57.80;;;19.67;58.21;100499.00;12250289;19;20017;-90
2023/07/30 04:05:10;;;;;;;;;;;20.80;57.80;;;19.69;58.04;100500.69;12250213;19;19919;-90
2023/07/30 04:09:12;;;;;;;;;;;20.80;57.90;;;19.55;58.05;100481.63;12247323;19;19918;-88
2023/07/30 04:13:14;;;;;;;;;;;20.80;57.90;;;19.67;58.41;100508.78;12249288;19;19915;-90
2023/07/30 04:17:16;;;;;;;;;;;20.70;57.90;;;19.76;58.21;100518.47;12245522;19;20384;-90
2023/07/30 04:21:18;;;;;;;;;;;20.70;57.90;;;19.58;58.25;100488.44;12249506;19;20321;-90
2023/07/30 04:25:19;;;;;;;;;;;20.70;58.00;;;19.86;58.09;100529.00;12247979;19;19919;-91
2023/07/30 04:29:21;;;;;;;;;;;20.70;58.10;;;19.86;58.28;100537.78;12248714;19;19919;-90
2023/07/30 04:33:23;;;;;;;;;;;20.70;58.10;;;19.75;58.04;100522.09;12248617;19;20302;-90
2023/07/30 04:37:25;;;;;;;;;;;20.70;58.30;;;19.93;58.35;100555.72;12244091;19;19947;-90
2023/07/30 04:41:28;;;;;;;;;;;20.80;58.30;;;19.90;58.26;100548.91;12248424;19;19935;-90
2023/07/30 04:45:32;;;;;;;;;;;20.80;58.40;;;19.54;58.06;100495.00;12244669;19;19907;-90
2023/07/30 04:49:34;;;;;;;;;;;20.80;58.40;;;19.94;58.44;100555.59;12246949;19;19918;-91
2023/07/30 04:53:36;;;;;;;;;;;20.80;58.50;;;19.95;58.12;100559.06;12246677;19;20323;-90
2023/07/30 04:57:37;;;;;;;;;;;20.80;58.40;;;19.79;58.43;100528.75;12244845;19;19918;-90
2023/07/30 05:01:39;;;;;;;;;;;20.80;58.50;;;19.89;58.25;100545.44;12248563;19;19923;-90
2023/07/30 05:05:41;;;;;;;;;;;20.80;58.50;;;19.95;58.27;100548.47;12246781;19;19919;-90
2023/07/30 05:09:43;;;;;;;;;;;20.80;58.50;;;19.91;58.24;100545.31;12247876;19;19922;-90
2023/07/30 05:13:44;;;;;;;;;;;20.80;58.50;;;19.92;58.03;100543.47;12244210;19;19911;-90
2023/07/30 05:17:45;;;;;;;;;;;20.90;58.60;;;19.87;58.14;100543.91;12244294;19;19956;-89
2023/07/30 05:21:47;;;;;;;;;;;20.90;58.90;;;19.86;58.07;100529.84;12246507;19;19939;-90
2023/07/30 05:25:49;;;;;;;;;;;20.90;58.80;;;20.00;58.17;100551.50;12242385;19;20265;-90
2023/07/30 05:29:50;;;;;;;;;;;20.90;58.80;;;20.08;58.42;100562.19;12246807;19;19996;-90
2023/07/30 05:33:51;;;;;;;;;;;21.00;59.10;;;20.07;58.33;100555.25;12246145;19;19951;-90
2023/07/30 05:37:53;;;;;;;;;;;20.90;58.90;;;20.16;58.54;100564.09;12242564;19;19915;-90
2023/07/30 05:41:55;;;;;;;;;;;21.00;59.20;;;20.16;58.64;100556.97;12247984;19;19937;-91
2023/07/30 05:45:56;;;;;;;;;;;21.00;59.50;;;20.20;58.34;100560.16;12243516;19;20269;-90
2023/07/30 05:49:58;;;;;;;;;;;21.10;59.20;;;20.30;58.75;100569.69;12248886;19;20269;-91
2023/07/30 05:54:00;;;;;;;;;;;21.20;59.30;;;20.36;58.54;100567.44;12260309;19;20318;-88
2023/07/30 05:58:01;;;;;;;;;;;21.20;59.40;;;20.38;58.82;100555.69;12254458;19;20356;-90
2023/07/30 06:02:03;;;;;;;;;;;21.30;59.40;;;20.49;58.69;100558.09;12251601;19;19927;-89
2023/07/30 06:06:05;;;;;;;;;;;21.40;59.40;;;20.64;58.78;100566.38;12256043;19;20021;-90
2023/07/30 06:10:07;;;;;;;;;;;21.50;59.60;;;20.74;58.78;100576.91;12254783;19;20454;-90
2023/07/30 06:14:10;;;;;;;;;;;21.60;59.60;;;20.75;58.69;100563.47;12254515;19;20330;-90
2023/07/30 06:18:11;;;;;;;;;;;21.70;59.50;;;20.85;58.73;100566.03;12249000;19;19927;-90
2023/07/30 06:22:13;;;;;;;;;;;21.80;59.50;;;20.91;59.01;100559.28;12253628;19;19915;-91
2023/07/30 06:26:14;;;;;;;;;;;21.90;59.60;;;20.95;59.02;100564.13;12252123;19;19915;-89
2023/07/30 06:30:16;;;;;;;;;;;22.00;59.40;;;21.07;58.72;100577.13;12252752;19;19918;-89
2023/07/30 06:34:17;;;;;;;;;;;22.10;59.60;;;20.95;58.94;100544.69;12254184;19;21464;-87
2023/07/30 06:38:19;;;;;;;;;;;22.10;59.50;;;21.11;58.69;100568.69;12250504;19;19990;-89
2023/07/30 06:42:20;;;;;;;;;;;22.10;59.60;;;21.19;59.08;100576.69;12254599;19;19923;-91
2023/07/30 06:46:22;;;;;;;;;;;22.20;59.50;;;21.28;59.10;100580.25;12249433;19;19982;-90
2023/07/30 06:50:23;;;;;;;;;;;22.30;59.70;;;21.35;58.81;100588.41;12254375;19;20041;-90
2023/07/30 06:54:25;;;;;;;;;;;22.30;59.40;;;21.37;59.09;100581.13;12247643;19;19915;-89
2023/07/30 06:58:26;;;;;;;;;;;22.40;59.50;;;21.27;59.11;100549.34;12245346;19;19934;-90
2023/07/30 07:02:28;;;;;;;;;;;22.40;59.40;;;21.42;58.75;100563.75;12245581;19;19927;-88
2023/07/30 07:06:30;;;;;;;;;;;22.50;59.60;;;21.38;59.13;100557.06;12251012;19;19907;-88
2023/07/30 07:10:31;;;;;;;;;;;22.60;59.60;;;21.54;58.72;100569.59;12250019;19;19927;-88
2023/07/30 07:14:33;;;;;;;;;;;22.60;59.50;;;21.65;59.04;100573.78;12249105;19;19925;-88
2023/07/30 07:18:34;;;;;;;;;;;22.60;59.60;;;21.57;59.30;100553.31;12251617;19;19914;-89
2023/07/30 07:22:35;;;;;;;;;;;22.70;59.60;;;21.82;59.21;100577.34;12251523;19;19934;-90
2023/07/30 07:26:37;;;;;;;;;;;22.80;59.70;;;21.84;59.24;100560.22;12249132;19;19951;-89
2023/07/30 07:30:38;;;;;;;;;;;22.90;59.80;;;21.93;59.08;100565.56;12250142;19;19946;-90
2023/07/30 07:34:39;;;;;;;;;;;23.00;59.80;;;22.07;59.01;100554.31;12248985;19;19919;-89
2023/07/30 07:38:41;;;;;;;;;;;23.00;59.80;;;22.02;59.15;100514.91;12246330;19;19948;-90
2023/07/30 07:42:42;;;;;;;;;;;23.20;60.30;;;22.26;59.15;100534.56;12249920;19;19918;-89
2023/07/30 07:46:43;;;;;;;;;;;23.30;60.00;;;22.40;59.48;100528.59;12247439;19;20251;-89
2023/07/30 07:50:45;;;;;;;;;;;23.50;60.60;;;22.59;59.55;100538.06;12250021;19;20581;-89
2023/07/30 07:54:47;;;;;;;;;;;23.60;60.50;;;22.87;59.25;100557.19;12242730;19;19915;-89
2023/07/30 07:58:48;;;;;;;;;;;23.80;60.70;;;23.04;59.55;100558.00;12249851;19;19931;-89
2023/07/30 08:02:50;;;;;;;;;;;24.00;60.20;;;23.09;59.43;100541.53;12248817;19;19918;-90
2023/07/30 08:06:51;;;;;;;;;;;24.20;59.90;;;23.26;59.50;100561.75;12243349;19;21106;-89
2023/07/30 08:10:53;;;;;;;;;;;24.30;59.60;;;23.33;59.13;100562.75;12246637;19;19921;-90
2023/07/30 08:14:57;;;;;;;;;;;24.40;59.50;;;23.38;59.14;100548.88;12243217;19;19921;-90
2023/07/30 08:18:58;;;;;;;;;;;24.50;59.50;;;23.48;59.42;100551.38;12248815;19;20325;-91
2023/07/30 08:22:59;;;;;;;;;;;24.60;59.50;;;23.63;59.28;100558.47;12247103;19;19926;-85
2023/07/30 08:27:01;;;;;;;;;;;24.70;59.60;;;23.59;59.54;100530.47;12245630;19;19923;-85
2023/07/30 08:31:03;;;;;;;;;;;24.80;59.70;;;23.88;59.45;100557.53;12246333;19;19914;-85
2023/07/30 08:35:08;;;;;;;;;;;24.90;59.30;;;23.95;59.38;100551.31;12242682;19;20223;-86
2023/07/30 08:39:09;;;;;;;;;;;25.00;59.20;;;24.09;59.25;100560.41;12246380;19;19923;-86
2023/07/30 08:43:11;;;;;;;;;;;25.10;59.30;;;24.16;59.66;100552.50;12248683;19;19930;-87
2023/07/30 08:47:12;;;;;;;;;;;25.30;59.30;;;24.31;59.40;100571.25;12238597;19;20337;-86
2023/07/30 08:51:14;;;;;;;;;;;25.40;58.70;;;24.35;59.15;100561.88;12246729;19;19940;-85
2023/07/30 08:55:16;;;;;;;;;;;25.50;58.50;;;24.42;58.90;100560.16;12246367;19;20019;-86
2023/07/30 08:59:20;;;;;;;;;;;25.50;58.50;;;24.53;59.36;100559.75;12243127;19;19922;-87
2023/07/30 09:03:25;;;;;;;;;;;25.70;58.70;;;24.58;59.39;100551.22;12246430;19;19919;-85
2023/07/30 09:07:26;;;;;;;;;;;25.80;58.70;;;24.66;59.27;100554.63;12242230;19;20315;-86
2023/07/30 09:11:28;;;;;;;;;;;25.90;58.30;;;24.67;58.95;100558.97;12246669;19;20321;-87
2023/07/30 09:15:34;;;;;;;;;;;25.90;58.20;;;24.65;58.92;100568.97;12247412;19;20333;-86
2023/07/30 09:19:35;;;;;;;;;;;25.80;57.50;;;24.66;58.75;100570.66;12248294;19;19926;-86
2023/07/30 09:23:44;;;;;;;;;;;25.80;57.70;;;24.63;58.86;100562.19;12252091;19;19911;-86
2023/07/30 09:27:52;;;;;;;;;;;25.80;57.60;;;24.66;58.98;100565.31;12255472;19;19929;-87
2023/07/30 09:31:55;;;;;;;;;;;25.80;57.80;;;24.64;58.50;100563.84;12257797;19;19959;-87
2023/07/30 09:35:56;;;;;;;;;;;25.80;57.70;;;24.62;58.46;100558.66;12256799;19;19934;-86
2023/07/30 09:39:58;;;;;;;;;;;25.80;57.40;;;24.70;58.40;100577.28;12259442;19;20514;-88
2023/07/30 09:44:00;;;;;;;;;;;25.70;57.30;;;24.74;58.48;100575.09;12256967;19;19938;-87
2023/07/30 09:48:04;;;;;;;;;;;25.80;57.30;;;24.83;58.38;100567.84;12252657;19;19926;-88
2023/07/30 09:52:06;;;;;;;;;;;25.80;56.10;;;24.92;58.52;100575.59;12254169;19;19919;-87
2023/07/30 09:56:08;;;;;;;;;;;26.00;56.80;;;25.02;58.75;100587.84;12253218;19;19922;-86
2023/07/30 10:00:10;;;;;;;;;;;26.00;56.50;;;25.03;58.26;100571.63;12257577;19;19928;-87
2023/07/30 10:04:12;;;;;;;;;;;26.10;56.60;;;25.06;58.43;100573.09;12257198;19;19998;-86
2023/07/30 10:08:20;;;;;;;;;;;26.20;56.50;;;25.12;58.35;100557.19;12251988;19;19919;-86
2023/07/30 10:12:26;;;;;;;;;;;26.30;55.30;;;25.38;58.30;100602.19;12253471;19;19927;-87
2023/07/30 10:16:31;;;;;;;;;;;26.40;56.20;;;25.35;58.35;100589.19;12252409;19;20645;-87
2023/07/30 10:20:32;;;;;;;;;;;26.40;56.00;;;25.40;57.99;100596.66;12259344;19;19939;-88
2023/07/30 10:24:34;;;;;;;;;;;26.50;56.10;;;25.42;58.32;100596.47;12254569;19;20246;-86
2023/07/30 10:28:38;;;;;;;;;;;26.50;56.00;;;25.26;57.81;100560.06;12259040;19;19922;-88
2023/07/30 10:32:55;;;;;;;;;;;26.50;55.80;;;25.50;57.77;100596.38;12253171;19;19922;-87
2023/07/30 10:36:56;;;;;;;;;;;26.50;55.70;;;25.54;57.91;100593.13;12252456;19;19923;-86
2023/07/30 10:41:09;;;;;;;;;;;26.60;54.10;;;25.67;58.18;100584.47;12257038;19;19942;-86
2023/07/30 10:45:10;;;;;;;;;;;26.80;54.90;;;25.78;57.76;100583.97;12255816;19;19915;-86
2023/07/30 10:49:12;;;;;;;;;;;26.80;55.50;;;25.90;57.52;100592.38;12257057;19;19925;-86
2023/07/30 10:53:18;;;;;;;;;;;26.90;55.10;;;25.96;57.78;100599.66;12251854;19;19925;-87
2023/07/30 10:57:20;;;;;;;;;;;27.00;55.10;;;25.98;57.67;100589.59;12253993;19;19911;-86
2023/07/30 11:01:25;;;;;;;;;;;27.10;55.00;;;26.14;57.36;100595.72;12254099;19;20365;-87
2023/07/30 11:05:28;;;;;;;;;;;27.20;55.00;;;26.15;57.37;100575.97;12253909;19;19931;-87
2023/07/30 11:09:30;;;;;;;;;;;27.30;55.20;;;26.30;57.65;100595.47;12256176;19;19915;-86
2023/07/30 11:13:40;;;;;;;;;;;27.40;53.40;;;26.33;57.65;100570.16;12255058;19;20449;-86
2023/07/30 11:17:44;;;;;;;;;;;27.40;54.50;;;26.47;57.40;100582.66;12249665;19;19926;-86
2023/07/30 11:21:50;;;;;;;;;;;27.60;54.50;;;26.44;57.03;100575.03;12254860;19;19922;-86
2023/07/30 11:25:52;;;;;;;;;;;27.60;54.10;;;26.53;56.76;100586.47;12253388;19;19923;-87
2023/07/30 11:29:55;;;;;;;;;;;27.60;54.40;;;26.53;57.06;100579.25;12252900;19;19927;-89
2023/07/30 11:33:57;;;;;;;;;;;27.60;54.10;;;26.50;56.71;100566.22;12251592;19;19943;-88
2023/07/30 11:37:58;;;;;;;;;;;27.70;54.40;;;26.59;57.08;100573.09;12252932;19;19914;-87
2023/07/30 11:42:01;;;;;;;;;;;27.70;54.40;;;26.62;56.68;100582.59;12253441;19;19955;-87
2023/07/30 11:46:22;;;;;;;;;;;27.70;54.50;;;26.62;56.69;100561.19;12247856;19;20330;-90
2023/07/30 11:50:23;;;;;;;;;;;27.70;53.20;;;26.75;56.67;100563.13;12250769;19;19910;-91
2023/07/30 11:54:26;;;;;;;;;;;27.80;54.50;;;26.81;56.50;100555.13;12253805;19;19923;-92
2023/07/30 11:58:28;;;;;;;;;;;27.80;53.40;;;26.77;56.29;100545.84;12248951;19;19930;-92
2023/07/30 12:02:30;;;;;;;;;;;27.90;54.50;;;26.88;56.35;100550.66;12254694;19;19933;-91
2023/07/30 12:07:05;;;;;;;;;;;28.00;53.50;;;27.09;56.14;100573.06;12249034;19;19918;-91
2023/07/30 12:11:08;;;;;;;;;;;28.00;54.10;;;27.15;56.48;100564.22;12251553;19;19919;-91
2023/07/30 12:15:12;;;;;;;;;;;28.20;53.80;;;27.04;55.81;100532.63;12251767;19;19923;-91
2023/07/30 12:19:14;;;;;;;;;;;28.20;53.70;;;27.30;55.94;100562.28;12247541;19;19915;-91
2023/07/30 12:23:15;;;;;;;;;;;28.30;53.60;;;27.28;55.87;100550.94;12252993;19;19978;-91
2023/07/30 12:27:17;;;;;;;;;;;28.40;53.90;;;27.38;56.04;100552.41;12250128;19;19918;-90
2023/07/30 12:35:46;;;;;;;;;;;28.40;52.80;;;27.09;55.54;100517.59;12251060;19;19911;-90
2023/07/30 12:39:48;;;;;;;;;;;28.40;51.00;;;27.11;55.59;100512.03;12251803;19;19926;-91
2023/07/30 12:43:50;;;;;;;;;;;28.40;51.60;;;27.12;55.51;100522.56;12250385;19;19910;-91
2023/07/30 12:47:52;;;;;;;;;;;28.40;52.10;;;27.46;55.60;100558.44;12246922;19;19911;-90
2023/07/30 12:51:53;;;;;;;;;;;28.40;52.70;;;27.19;55.23;100498.47;12248011;19;21007;-90
2023/07/30 12:55:55;;;;;;;;;;;28.50;47.80;;;27.45;55.29;100539.88;12249067;19;19919;-91
2023/07/30 12:59:57;;;;;;;;;;;28.50;51.60;;;27.51;55.00;100555.97;12257889;19;20253;-91
2023/07/30 13:03:59;;;;;;;;;;;28.50;50.90;;;27.39;54.56;100519.22;12261380;19;19911;-90
2023/07/30 13:08:00;;;;;;;;;;;28.60;51.20;;;27.45;55.19;100513.03;12258694;19;19928;-90
2023/07/30 13:12:02;;;;;;;;;;;28.60;51.80;;;27.65;54.67;100540.75;12259818;19;19935;-89
2023/07/30 13:16:03;;;;;;;;;;;28.60;52.10;;;27.46;54.74;100510.13;12259627;19;19954;-89
2023/07/30 13:20:06;;;;;;;;;;;28.60;51.90;;;27.69;54.66;100542.00;12261209;19;20007;-90
2023/07/30 13:24:07;;;;;;;;;;;28.60;51.90;;;27.69;54.76;100542.00;12264644;19;19986;-85
2023/07/30 13:28:09;;;;;;;;;;;28.70;49.20;;;27.63;54.30;100517.84;12257805;19;19918;-86
2023/07/30 13:32:11;;;;;;;;;;;28.60;45.90;;;27.68;54.21;100523.41;12257413;19;20241;-86
2023/07/30 13:36:13;;;;;;;;;;;28.70;50.70;;;27.64;54.27;100512.28;12262370;19;19926;-86
2023/07/30 13:40:15;;;;;;;;;;;28.60;51.60;;;27.57;54.06;100508.72;12263449;19;20241;-86
2023/07/30 13:44:16;;;;;;;;;;;28.60;49.50;;;27.62;54.07;100508.97;12259157;19;19938;-87
2023/07/30 13:48:18;;;;;;;;;;;28.60;51.30;;;27.67;53.77;100516.41;12265910;19;20257;-86
2023/07/30 13:52:19;;;;;;;;;;;28.60;50.00;;;27.69;53.88;100515.19;12261384;19;20036;-86
2023/07/30 13:56:21;;;;;;;;;;;28.60;50.60;;;27.56;53.53;100496.34;12264336;19;19931;-85
2023/07/30 14:00:22;;;;;;;;;;;28.60;50.90;;;27.55;53.62;100497.41;12263809;19;19922;-86
2023/07/30 14:04:24;;;;;;;;;;;28.60;51.40;;;27.61;54.02;100510.00;12263052;19;19951;-85
2023/07/30 14:08:25;;;;;;;;;;;28.60;51.40;;;27.74;53.45;100534.19;12256987;19;19974;-85
2023/07/30 14:12:26;;;;;;;;;;;28.70;52.00;;;27.75;53.30;100541.19;12247190;19;19933;-85
2023/07/30 14:16:28;;;;;;;;;;;28.70;51.30;;;27.63;53.44;100521.38;12256716;19;19931;-85
2023/07/30 14:20:29;;;;;;;;;;;28.60;50.70;;;27.62;53.11;100530.41;12256564;19;20310;-86
2023/07/30 14:24:31;;;;;;;;;;;28.60;50.20;;;27.50;53.18;100514.09;12257685;19;19948;-86
2023/07/30 14:28:32;;;;;;;;;;;28.60;51.00;;;27.55;53.09;100533.09;12255516;19;20376;-85
2023/07/30 14:32:34;;;;;;;;;;;28.60;51.00;;;27.55;52.71;100540.31;12251390;19;20011;-85
2023/07/30 14:36:36;;;;;;;;;;;28.50;51.00;;;27.46;52.92;100539.66;12252582;19;19930;-85
2023/07/30 14:40:38;;;;;;;;;;;28.40;50.70;;;27.45;53.21;100554.09;12254321;19;20404;-85
2023/07/30 14:44:39;;;;;;;;;;;28.30;50.60;;;27.36;52.84;100572.22;12254865;19;20316;-90
2023/07/30 14:48:42;;;;;;;;;;;28.30;50.50;;;27.30;52.64;100583.75;12253707;19;19923;-89
2023/07/30 14:52:44;;;;;;;;;;;28.20;50.80;;;27.05;52.95;100572.63;12250783;19;19974;-90
2023/07/30 14:56:45;;;;;;;;;;;28.10;50.20;;;27.09;52.58;100605.25;12253861;19;19914;-89
2023/07/30 15:00:47;;;;;;;;;;;28.00;50.50;;;26.94;52.51;100610.69;12254859;19;19914;-88
2023/07/30 15:04:49;;;;;;;;;;;27.90;50.30;;;26.79;52.35;100621.50;12258081;19;19930;-88
2023/07/30 15:08:50;;;;;;;;;;;27.80;50.60;;;26.61;52.32;100615.78;12255938;19;20013;-88
2023/07/30 15:12:52;;;;;;;;;;;27.60;50.70;;;26.48;52.38;100593.16;12253159;19;20245;-88
2023/07/30 15:16:54;;;;;;;;;;;27.40;50.70;;;26.39;52.44;100609.59;12250901;19;19927;-88
2023/07/30 15:20:55;;;;;;;;;;;27.20;51.10;;;26.19;52.32;100587.94;12254312;19;19907;-89
2023/07/30 15:24:57;;;;;;;;;;;27.10;51.40;;;26.14;51.88;100619.81;12251965;19;19967;-89
2023/07/30 15:28:59;;;;;;;;;;;26.90;51.40;;;25.97;52.37;100614.69;12247108;19;20321;-89
2023/07/30 15:33:01;;;;;;;;;;;26.70;51.60;;;25.66;52.15;100592.69;12248852;19;20250;-90
2023/07/30 15:37:03;;;;;;;;;;;26.50;51.70;;;25.29;52.19;100544.47;12245614;19;19918;-90
2023/07/30 15:41:04;;;;;;;;;;;26.30;51.80;;;25.45;52.14;100574.72;12249312;19;19930;-89
2023/07/30 15:45:06;;;;;;;;;;;26.10;51.90;;;25.40;52.19;100567.25;12248222;19;19930;-90
2023/07/30 15:49:08;;;;;;;;;;;26.00;52.10;;;25.21;52.36;100547.25;12250064;19;19918;-90
2023/07/30 15:53:10;;;;;;;;;;;26.00;52.50;;;25.29;51.97;100565.88;12250504;19;19939;-90
2023/07/30 15:57:14;;;;;;;;;;;26.00;52.70;;;25.38;52.26;100577.28;12247234;19;20265;-88
2023/07/30 16:01:15;;;;;;;;;;;25.90;52.60;;;25.36;52.44;100590.03;12248508;19;19953;-89
2023/07/30 16:05:17;;;;;;;;;;;25.90;52.60;;;25.06;52.00;100560.59;12249417;19;19918;-89
2023/07/30 16:09:19;;;;;;;;;;;25.90;52.60;;;25.03;52.03;100552.91;12239079;19;20605;-89
2023/07/30 16:13:20;;;;;;;;;;;25.80;52.60;;;25.01;52.21;100554.16;12242065;19;19919;-89
2023/07/30 16:17:22;;;;;;;;;;;25.80;52.70;;;24.97;52.09;100556.34;12246761;19;19943;-89
2023/07/30 16:21:23;;;;;;;;;;;25.70;52.60;;;24.83;52.27;100538.44;12247568;19;19922;-90
2023/07/30 16:25:25;;;;;;;;;;;25.70;52.70;;;25.03;52.25;100574.28;12248785;19;19914;-90
2023/07/30 16:29:27;;;;;;;;;;;25.70;52.60;;;24.95;52.14;100569.03;12247671;19;19926;-89
2023/07/30 16:33:29;;;;;;;;;;;25.60;52.40;;;24.91;52.37;100571.25;12225662;19;19974;-89
2023/07/30 16:37:30;;;;;;;;;;;25.60;52.50;;;24.90;52.56;100580.28;12241341;19;19938;-90
2023/07/30 16:41:32;;;;;;;;;;;25.50;52.50;;;24.84;52.48;100572.97;12244593;19;20269;-88
2023/07/30 16:45:33;;;;;;;;;;;25.50;52.70;;;24.91;52.54;100583.78;12239179;19;19929;-89
2023/07/30 16:49:35;;;;;;;;;;;25.50;52.60;;;24.91;52.55;100599.81;12242525;19;19911;-90
2023/07/30 16:53:37;;;;;;;;;;;25.50;52.80;;;24.83;52.33;100597.22;12246859;19;19923;-89
2023/07/30 16:57:39;;;;;;;;;;;25.40;52.60;;;24.82;52.65;100604.41;12245076;19;19963;-90
2023/07/30 17:01:40;;;;;;;;;;;25.40;52.60;;;24.62;52.42;100589.88;12245688;19;20301;-89
2023/07/30 17:05:42;;;;;;;;;;;25.40;52.50;;;24.68;52.25;100608.72;12243262;19;19919;-89
2023/07/30 17:09:43;;;;;;;;;;;25.30;52.60;;;24.36;52.31;100559.03;12247620;19;19954;-89
2023/07/30 17:13:45;;;;;;;;;;;25.30;52.50;;;24.58;52.70;100605.44;12244654;19;19999;-89
2023/07/30 17:17:50;;;;;;;;;;;25.20;52.20;;;24.37;52.52;100575.88;12241176;19;19954;-89
2023/07/30 17:21:51;;;;;;;;;;;25.20;52.20;;;24.41;52.26;100598.53;12244918;19;19923;-90
2023/07/30 17:25:53;;;;;;;;;;;25.10;52.30;;;24.38;52.61;100599.72;12238564;19;19914;-88
2023/07/30 17:29:58;;;;;;;;;;;25.10;52.30;;;24.27;52.58;100606.28;12242114;19;19921;-88
2023/07/30 17:33:59;;;;;;;;;;;25.10;52.30;;;23.98;52.23;100560.78;12244280;19;19931;-88
2023/07/30 17:38:01;;;;;;;;;;;25.00;52.30;;;24.14;52.30;100599.88;12241870;19;19926;-89
2023/07/30 17:42:04;;;;;;;;;;;25.00;52.40;;;24.17;52.56;100605.72;12245803;19;19930;-88
2023/07/30 17:46:05;;;;;;;;;;;25.00;52.30;;;23.96;52.43;100584.97;12249458;19;20297;-89
2023/07/30 17:50:07;;;;;;;;;;;24.90;52.30;;;24.23;52.42;100636.19;12256374;19;19923;-87
2023/07/30 17:54:09;;;;;;;;;;;24.80;52.10;;;24.13;52.20;100636.41;12258504;19;19923;-87
2023/07/30 17:58:10;;;;;;;;;;;24.80;52.30;;;24.18;52.74;100642.06;12241227;19;20200;-88
2023/07/30 18:02:12;;;;;;;;;;;24.80;52.20;;;24.15;52.75;100650.41;12256255;19;19943;-89
2023/07/30 18:06:14;;;;;;;;;;;24.80;52.30;;;24.14;52.60;100653.25;12253969;19;19918;-87
2023/07/30 18:10:15;;;;;;;;;;;24.80;52.30;;;24.00;52.30;100630.81;12253881;19;20329;-88
2023/07/30 18:14:17;;;;;;;;;;;24.70;52.10;;;23.95;52.00;100660.69;12255273;19;19992;-88